createdAt,value
2016-11-19T00:00:21.213Z,996.72
2016-11-19T00:01:36.506Z,996.72
2016-11-19T00:02:52.148Z,996.68
2016-11-19T00:04:08.528Z,996.75
2016-11-19T00:05:37.139Z,996.71
2016-11-19T00:06:51.847Z,996.7
2016-11-19T00:08:07.170Z,996.73
2016-11-19T00:09:22.601Z,996.69
2016-11-19T00:10:37.474Z,996.64
2016-11-19T00:11:52.113Z,996.69
2016-11-19T00:13:07.561Z,996.65
2016-11-19T00:14:43.088Z,996.65
2016-11-19T00:15:58.120Z,996.65
2016-11-19T00:17:13.301Z,996.73
2016-11-19T00:18:28.217Z,996.75
2016-11-19T00:19:42.883Z,996.76
2016-11-19T00:20:57.407Z,996.74
2016-11-19T00:22:12.070Z,996.73
2016-11-19T00:23:26.813Z,996.65
2016-11-19T00:24:41.754Z,996.62
2016-11-19T00:25:56.888Z,996.56
2016-11-19T00:27:11.313Z,996.53
2016-11-19T00:28:26.443Z,996.54
2016-11-19T00:31:05.498Z,996.5
2016-11-19T00:32:20.333Z,996.47
2016-11-19T00:33:36.522Z,996.41
2016-11-19T00:34:52.194Z,996.4
2016-11-19T00:36:09.666Z,996.38
2016-11-19T00:37:24.267Z,996.36
2016-11-19T00:40:23.784Z,996.35
2016-11-19T00:41:38.217Z,996.35
2016-11-19T00:42:52.716Z,996.27
2016-11-19T00:44:09.009Z,996.28
2016-11-19T00:45:23.737Z,996.23
2016-11-19T00:46:38.353Z,996.26
2016-11-19T00:47:52.738Z,996.28
2016-11-19T00:49:07.244Z,996.29
2016-11-19T00:50:38.564Z,996.33
2016-11-19T00:51:54.194Z,996.32
2016-11-19T00:53:10.078Z,996.29
2016-11-19T00:54:25.715Z,996.3
2016-11-19T00:55:40.586Z,996.28
2016-11-19T00:56:56.564Z,996.3
2016-11-19T00:58:11.153Z,996.35
2016-11-19T00:59:26.251Z,996.37
2016-11-19T01:00:40.724Z,996.4
2016-11-19T01:01:55.440Z,996.38
2016-11-19T01:03:10.134Z,996.4
2016-11-19T01:04:25.176Z,996.48
2016-11-19T01:05:40.298Z,996.56
2016-11-19T01:06:55.062Z,996.64
2016-11-19T01:08:09.595Z,996.7
2016-11-19T01:09:24.471Z,996.7
2016-11-19T01:10:38.901Z,996.65
2016-11-19T01:11:53.513Z,996.66
2016-11-19T01:13:08.469Z,996.66
2016-11-19T01:14:23.169Z,996.7
2016-11-19T01:15:37.833Z,996.74
2016-11-19T01:16:54.626Z,996.71
2016-11-19T01:18:08.884Z,996.77
2016-11-19T01:19:23.977Z,996.82
2016-11-19T01:20:38.510Z,996.79
2016-11-19T01:21:53.152Z,996.8
2016-11-19T01:23:07.687Z,996.82
2016-11-19T01:24:22.505Z,996.82
2016-11-19T01:25:37.397Z,996.84
2016-11-19T01:26:52.197Z,996.8
2016-11-19T01:28:07.117Z,996.81
2016-11-19T01:29:21.878Z,996.78
2016-11-19T01:30:36.714Z,996.76
2016-11-19T01:31:51.258Z,996.74
2016-11-19T01:33:05.801Z,996.73
2016-11-19T01:34:20.459Z,996.63
2016-11-19T01:41:30.212Z,996.68
2016-11-19T01:42:45.012Z,996.68
2016-11-19T01:44:17.459Z,996.73
2016-11-19T01:45:32.256Z,996.72
2016-11-19T01:46:46.875Z,996.72
2016-11-19T01:48:01.682Z,996.72
2016-11-19T01:49:16.178Z,996.8
2016-11-19T01:50:30.973Z,996.78
2016-11-19T01:51:46.306Z,996.74
2016-11-19T01:57:28.920Z,996.77
2016-11-19T01:59:03.677Z,996.76
2016-11-19T02:00:18.106Z,996.74
2016-11-19T02:01:32.912Z,996.64
2016-11-19T02:02:47.216Z,996.59
2016-11-19T02:04:01.881Z,996.55
2016-11-19T02:05:16.108Z,996.52
2016-11-19T02:06:30.763Z,996.46
2016-11-19T02:07:45.425Z,996.42
2016-11-19T02:09:00.003Z,996.38
2016-11-19T02:10:14.560Z,996.36
2016-11-19T02:11:29.063Z,996.32
2016-11-19T02:12:43.549Z,996.38
2016-11-19T02:13:58.346Z,996.37
2016-11-19T02:15:12.611Z,996.34
2016-11-19T02:16:27.352Z,996.3
2016-11-19T02:17:42.050Z,996.34
2016-11-19T02:18:56.811Z,996.3
2016-11-19T02:20:11.370Z,996.29
2016-11-19T02:21:26.121Z,996.27
2016-11-19T02:22:40.646Z,996.17
2016-11-19T02:23:55.599Z,996.15
2016-11-19T02:25:10.263Z,996.2
2016-11-19T02:26:24.831Z,996.15
2016-11-19T02:27:39.362Z,996.1
2016-11-19T02:28:53.826Z,996.01
2016-11-19T02:30:08.302Z,996
2016-11-19T02:31:22.868Z,995.97
2016-11-19T02:32:37.297Z,995.97
2016-11-19T02:33:51.950Z,995.94
2016-11-19T02:35:06.382Z,995.91
2016-11-19T02:36:20.907Z,995.8
2016-11-19T02:37:35.250Z,995.72
2016-11-19T02:38:49.781Z,995.66
2016-11-19T02:41:36.171Z,995.7
2016-11-19T02:42:50.617Z,995.74
2016-11-19T02:44:05.627Z,995.81
2016-11-19T02:45:20.861Z,995.76
2016-11-19T02:46:35.297Z,995.71
2016-11-19T02:47:49.595Z,995.72
2016-11-19T02:49:04.235Z,995.72
2016-11-19T02:50:19.165Z,995.64
2016-11-19T02:51:33.710Z,995.64
2016-11-19T02:52:48.374Z,995.7
2016-11-19T02:54:02.912Z,995.67
2016-11-19T02:55:17.314Z,995.68
2016-11-19T02:56:31.943Z,995.69
2016-11-19T02:57:46.275Z,995.71
2016-11-19T02:59:00.642Z,995.7
2016-11-19T03:00:25.380Z,995.68
2016-11-19T03:01:40.423Z,995.64
2016-11-19T03:02:54.890Z,995.7
2016-11-19T03:04:09.446Z,995.73
2016-11-19T03:05:24.287Z,995.82
2016-11-19T03:06:39.521Z,995.84
2016-11-19T03:07:54.355Z,995.88
2016-11-19T03:09:09.153Z,995.8
2016-11-19T03:10:23.784Z,995.76
2016-11-19T03:11:38.927Z,995.75
2016-11-19T03:12:53.541Z,995.77
2016-11-19T03:14:08.579Z,995.83
2016-11-19T03:15:22.994Z,995.86
2016-11-19T03:16:37.622Z,995.8
2016-11-19T03:17:52.165Z,995.81
2016-11-19T03:19:07.093Z,995.83
2016-11-19T03:20:21.770Z,995.83
2016-11-19T03:21:36.623Z,995.82
2016-11-19T03:22:51.491Z,995.78
2016-11-19T03:24:06.217Z,995.78
2016-11-19T03:25:21.057Z,995.75
2016-11-19T03:26:35.479Z,995.75
2016-11-19T03:27:50.418Z,995.77
2016-11-19T03:29:04.848Z,995.78
2016-11-19T03:30:19.949Z,995.78
2016-11-19T03:31:34.853Z,995.77
2016-11-19T03:32:49.779Z,995.76
2016-11-19T03:34:04.629Z,995.78
2016-11-19T03:36:49.025Z,995.81
2016-11-19T03:38:03.348Z,995.86
2016-11-19T03:39:18.263Z,995.85
2016-11-19T03:40:33.710Z,995.89
2016-11-19T03:41:48.077Z,995.83
2016-11-19T03:43:02.938Z,995.85
2016-11-19T03:44:32.793Z,995.83
2016-11-19T03:45:47.388Z,995.83
2016-11-19T03:47:02.137Z,995.81
2016-11-19T03:48:16.757Z,995.8
2016-11-19T03:49:31.474Z,995.81
2016-11-19T03:50:46.313Z,995.79
2016-11-19T03:52:01.208Z,995.77
2016-11-19T03:53:15.985Z,995.77
2016-11-19T03:54:30.794Z,995.74
2016-11-19T03:55:45.287Z,995.68
2016-11-19T03:57:14.921Z,995.65
2016-11-19T03:58:32.171Z,995.63
2016-11-19T03:59:47.174Z,995.65
2016-11-19T04:01:02.067Z,995.65
2016-11-19T04:02:17.098Z,995.71
2016-11-19T04:03:31.907Z,995.71
2016-11-19T04:04:46.569Z,995.69
2016-11-19T04:06:01.526Z,995.68
2016-11-19T04:07:16.498Z,995.65
2016-11-19T04:08:31.914Z,995.62
2016-11-19T04:09:46.902Z,995.54
2016-11-19T04:11:01.348Z,995.5
2016-11-19T04:12:31.265Z,995.55
2016-11-19T04:13:46.054Z,995.57
2016-11-19T04:15:00.808Z,995.54
2016-11-19T04:16:14.948Z,995.49
2016-11-19T04:17:30.148Z,995.51
2016-11-19T04:18:44.573Z,995.45
2016-11-19T04:19:58.971Z,995.35
2016-11-19T04:21:13.705Z,995.28
2016-11-19T04:22:28.510Z,995.17
2016-11-19T04:23:44.103Z,995.23
2016-11-19T04:24:59.220Z,995.24
2016-11-19T04:26:13.631Z,995.23
2016-11-19T04:27:28.296Z,995.27
2016-11-19T04:28:42.894Z,995.32
2016-11-19T04:29:58.111Z,995.32
2016-11-19T04:31:13.140Z,995.38
2016-11-19T04:32:27.722Z,995.35
2016-11-19T04:33:42.084Z,995.35
2016-11-19T04:34:56.788Z,995.41
2016-11-19T04:36:12.121Z,995.37
2016-11-19T04:37:27.518Z,995.32
2016-11-19T04:38:41.993Z,995.29
2016-11-19T04:39:56.536Z,995.27
2016-11-19T04:41:11.193Z,995.26
2016-11-19T04:42:26.056Z,995.25
2016-11-19T04:43:41.075Z,995.21
2016-11-19T04:44:55.710Z,995.18
2016-11-19T04:46:10.300Z,995.15
2016-11-19T04:47:24.999Z,995.13
2016-11-19T04:48:40.182Z,995.17
2016-11-19T04:49:55.521Z,995.12
2016-11-19T04:51:10.160Z,995.16
2016-11-19T04:52:24.733Z,995.22
2016-11-19T04:53:39.129Z,995.23
2016-11-19T04:54:54.307Z,995.25
2016-11-19T04:56:24.323Z,995.29
2016-11-19T04:57:38.691Z,995.33
2016-11-19T04:58:53.438Z,995.33
2016-11-19T05:00:08.045Z,995.38
2016-11-19T05:01:23.004Z,995.34
2016-11-19T05:02:37.596Z,995.31
2016-11-19T05:03:52.700Z,995.3
2016-11-19T05:05:07.324Z,995.3
2016-11-19T05:06:22.445Z,995.33
2016-11-19T05:07:37.913Z,995.35
2016-11-19T05:08:52.442Z,995.37
2016-11-19T05:10:07.437Z,995.45
2016-11-19T05:11:21.967Z,995.44
2016-11-19T05:12:36.799Z,995.44
2016-11-19T05:13:51.504Z,995.41
2016-11-19T05:15:06.325Z,995.39
2016-11-19T05:16:23.345Z,995.37
2016-11-19T05:17:37.840Z,995.43
2016-11-19T05:18:52.944Z,995.42
2016-11-19T05:20:07.301Z,995.39
2016-11-19T05:21:36.067Z,995.39
2016-11-19T05:22:50.900Z,995.35
2016-11-19T05:24:05.193Z,995.36
2016-11-19T05:25:19.601Z,995.35
2016-11-19T05:26:34.327Z,995.32
2016-11-19T05:27:49.289Z,995.32
2016-11-19T05:29:04.225Z,995.26
2016-11-19T05:30:18.778Z,995.22
2016-11-19T05:31:33.268Z,995.24
2016-11-19T05:32:47.830Z,995.26
2016-11-19T05:34:02.481Z,995.23
2016-11-19T05:35:17.919Z,995.26
2016-11-19T05:36:32.185Z,995.31
2016-11-19T05:37:46.474Z,995.28
2016-11-19T05:39:00.902Z,995.21
2016-11-19T05:40:15.506Z,995.29
2016-11-19T05:41:30.850Z,995.27
2016-11-19T05:42:45.451Z,995.26
2016-11-19T05:44:00.316Z,995.26
2016-11-19T05:45:15.175Z,995.3
2016-11-19T05:46:30.191Z,995.27
2016-11-19T05:47:45.357Z,995.27
2016-11-19T05:49:00.066Z,995.31
2016-11-19T05:50:14.954Z,995.3
2016-11-19T05:51:29.545Z,995.3
2016-11-19T05:52:44.146Z,995.29
2016-11-19T05:53:58.750Z,995.3
2016-11-19T05:55:13.649Z,995.25
2016-11-19T05:56:28.131Z,995.22
2016-11-19T05:57:42.862Z,995.24
2016-11-19T05:58:57.937Z,995.29
2016-11-19T06:00:27.455Z,995.3
2016-11-19T06:01:57.086Z,995.37
2016-11-19T06:03:11.688Z,995.33
2016-11-19T06:04:26.623Z,995.34
2016-11-19T06:05:41.388Z,995.27
2016-11-19T06:06:55.825Z,995.26
2016-11-19T06:08:10.568Z,995.31
2016-11-19T06:09:25.015Z,995.25
2016-11-19T06:10:40.060Z,995.22
2016-11-19T06:11:55.116Z,995.18
2016-11-19T06:13:09.552Z,995.21
2016-11-19T06:14:23.943Z,995.17
2016-11-19T06:15:38.552Z,995.22
2016-11-19T06:16:53.114Z,995.24
2016-11-19T06:18:08.449Z,995.25
2016-11-19T06:19:22.821Z,995.25
2016-11-19T06:20:37.372Z,995.24
2016-11-19T06:21:51.738Z,995.21
2016-11-19T06:23:06.660Z,995.25
2016-11-19T06:24:22.060Z,995.26
2016-11-19T06:25:36.566Z,995.32
2016-11-19T06:26:50.804Z,995.32
2016-11-19T06:28:05.407Z,995.33
2016-11-19T06:29:20.386Z,995.36
2016-11-19T06:30:35.104Z,995.33
2016-11-19T06:31:49.526Z,995.35
2016-11-19T06:33:04.097Z,995.29
2016-11-19T06:34:21.240Z,995.36
2016-11-19T06:35:36.317Z,995.35
2016-11-19T06:36:50.715Z,995.33
2016-11-19T06:38:05.154Z,995.33
2016-11-19T06:39:19.743Z,995.26
2016-11-19T06:40:34.079Z,995.32
2016-11-19T06:41:48.627Z,995.31
2016-11-19T06:43:03.732Z,995.33
2016-11-19T06:44:18.614Z,995.35
2016-11-19T06:45:32.927Z,995.4
2016-11-19T06:46:47.445Z,995.39
2016-11-19T06:48:01.642Z,995.41
2016-11-19T06:49:16.825Z,995.37
2016-11-19T06:50:31.386Z,995.36
2016-11-19T06:51:46.201Z,995.37
2016-11-19T06:53:01.433Z,995.36
2016-11-19T06:54:15.707Z,995.4
2016-11-19T06:55:30.518Z,995.37
2016-11-19T06:56:45.633Z,995.43
2016-11-19T06:58:14.974Z,995.4
2016-11-19T06:59:29.745Z,995.45
2016-11-19T07:00:44.674Z,995.46
2016-11-19T07:01:59.336Z,995.41
2016-11-19T07:03:14.041Z,995.44
2016-11-19T07:04:28.383Z,995.42
2016-11-19T07:05:42.837Z,995.42
2016-11-19T07:11:54.437Z,995.34
2016-11-19T07:13:09.182Z,995.39
2016-11-19T07:14:23.944Z,995.45
2016-11-19T07:15:39.713Z,995.46
2016-11-19T07:16:54.313Z,995.46
2016-11-19T07:18:09.314Z,995.51
2016-11-19T07:19:23.979Z,995.5
2016-11-19T07:20:38.821Z,995.48
2016-11-19T07:21:53.608Z,995.48
2016-11-19T07:23:08.699Z,995.5
2016-11-19T07:24:23.466Z,995.44
2016-11-19T07:25:38.281Z,995.4
2016-11-19T07:26:52.873Z,995.34
2016-11-19T07:28:07.635Z,995.31
2016-11-19T07:29:22.763Z,995.29
2016-11-19T07:30:37.509Z,995.32
2016-11-19T07:31:52.736Z,995.28
2016-11-19T07:33:22.166Z,995.28
2016-11-19T07:34:36.914Z,995.36
2016-11-19T07:35:51.776Z,995.33
2016-11-19T07:37:06.654Z,995.35
2016-11-19T07:38:21.967Z,995.32
2016-11-19T07:39:36.463Z,995.35
2016-11-19T07:40:51.498Z,995.33
2016-11-19T07:42:06.506Z,995.35
2016-11-19T07:43:21.337Z,995.38
2016-11-19T07:44:35.972Z,995.41
2016-11-19T07:45:51.231Z,995.45
2016-11-19T07:47:20.877Z,995.52
2016-11-19T07:48:35.896Z,995.54
2016-11-19T07:49:51.418Z,995.62
2016-11-19T07:51:06.073Z,995.66
2016-11-19T07:52:21.968Z,995.75
2016-11-19T07:53:36.683Z,995.75
2016-11-19T07:54:54.334Z,995.83
2016-11-19T07:56:09.958Z,995.9
2016-11-19T07:57:24.561Z,996
2016-11-19T07:58:39.810Z,996.07
2016-11-19T07:59:54.863Z,996.11
2016-11-19T08:01:10.177Z,996.15
2016-11-19T08:02:24.918Z,996.23
2016-11-19T08:03:40.592Z,996.2
2016-11-19T08:04:55.340Z,996.24
2016-11-19T08:06:10.205Z,996.3
2016-11-19T08:07:25.373Z,996.28
2016-11-19T08:08:40.027Z,996.24
2016-11-19T08:09:54.664Z,996.26
2016-11-19T08:11:09.604Z,996.22
2016-11-19T08:12:24.207Z,996.19
2016-11-19T08:13:39.361Z,996.18
2016-11-19T08:14:53.806Z,996.17
2016-11-19T08:16:08.797Z,996.14
2016-11-19T08:17:23.350Z,996.12
2016-11-19T08:18:38.581Z,996.11
2016-11-19T08:19:53.542Z,996.07
2016-11-19T08:21:07.942Z,996.04
2016-11-19T08:22:22.443Z,996.02
2016-11-19T08:23:37.291Z,996.01
2016-11-19T08:24:51.883Z,995.99
2016-11-19T08:26:07.034Z,995.96
2016-11-19T08:27:21.890Z,995.98
2016-11-19T08:28:36.446Z,995.95
2016-11-19T08:29:51.255Z,995.93
2016-11-19T08:31:06.029Z,995.91
2016-11-19T08:32:35.512Z,995.93
2016-11-19T08:33:49.878Z,996.04
2016-11-19T08:35:04.577Z,996.14
2016-11-19T08:36:19.618Z,996.22
2016-11-19T08:37:34.741Z,996.23
2016-11-19T08:38:49.676Z,996.27
2016-11-19T08:40:04.270Z,996.31
2016-11-19T08:41:19.133Z,996.34
2016-11-19T08:42:33.824Z,996.35
2016-11-19T08:43:49.433Z,996.31
2016-11-19T08:45:03.855Z,996.42
2016-11-19T08:46:19.242Z,996.38
2016-11-19T08:47:33.882Z,996.35
2016-11-19T08:48:48.424Z,996.34
2016-11-19T08:50:03.377Z,996.31
2016-11-19T08:51:17.915Z,996.29
2016-11-19T08:52:32.468Z,996.23
2016-11-19T08:53:47.076Z,996.21
2016-11-19T08:55:01.486Z,996.22
2016-11-19T08:56:16.653Z,996.32
2016-11-19T08:57:33.062Z,996.3
2016-11-19T08:58:47.997Z,996.31
2016-11-19T09:00:02.525Z,996.32
2016-11-19T09:01:17.228Z,996.27
2016-11-19T09:02:32.504Z,996.23
2016-11-19T09:03:47.323Z,996.17
2016-11-19T09:05:02.056Z,996.11
2016-11-19T09:06:36.639Z,996.06
2016-11-19T09:07:51.651Z,996.1
2016-11-19T09:09:06.121Z,996.11
2016-11-19T09:10:20.457Z,996.12
2016-11-19T09:11:35.025Z,996.05
2016-11-19T09:12:52.084Z,995.99
2016-11-19T09:14:07.122Z,995.91
2016-11-19T09:15:21.514Z,995.9
2016-11-19T09:16:36.231Z,995.92
2016-11-19T09:17:50.851Z,996.04
2016-11-19T09:19:20.661Z,996.18
2016-11-19T09:20:35.238Z,996.26
2016-11-19T09:21:50.370Z,996.35
2016-11-19T09:24:34.067Z,996.41
2016-11-19T09:25:48.739Z,996.47
2016-11-19T09:27:03.909Z,996.47
2016-11-19T09:28:18.726Z,996.49
2016-11-19T09:29:33.586Z,996.54
2016-11-19T09:30:48.484Z,996.61
2016-11-19T09:32:03.580Z,996.56
2016-11-19T09:33:17.960Z,996.55
2016-11-19T09:34:33.091Z,996.49
2016-11-19T09:36:02.751Z,996.46
2016-11-19T09:37:19.237Z,996.48
2016-11-19T09:38:34.294Z,996.53
2016-11-19T09:39:48.624Z,996.56
2016-11-19T09:41:03.889Z,996.61
2016-11-19T09:42:20.050Z,996.68
2016-11-19T09:43:44.329Z,996.71
2016-11-19T09:45:16.034Z,996.74
2016-11-19T09:46:45.650Z,996.79
2016-11-19T09:49:33.204Z,996.87
2016-11-19T09:50:47.587Z,996.91
2016-11-19T09:52:02.252Z,996.89
2016-11-19T09:53:16.676Z,996.94
2016-11-19T09:54:31.908Z,997
2016-11-19T09:55:47.114Z,997.05
2016-11-19T09:57:02.377Z,997.06
2016-11-19T09:58:17.736Z,997.11
2016-11-19T09:59:32.289Z,997.1
2016-11-19T10:00:46.757Z,997.12
2016-11-19T10:02:03.313Z,997.08
2016-11-19T10:03:33.722Z,997.07
2016-11-19T10:04:48.628Z,997.1
2016-11-19T10:06:03.148Z,997.06
2016-11-19T10:07:17.799Z,997.05
2016-11-19T10:08:32.924Z,997.02
2016-11-19T10:09:47.899Z,997.03
2016-11-19T10:11:02.866Z,997.05
2016-11-19T10:12:17.709Z,996.99
2016-11-19T10:13:32.686Z,997.05
2016-11-19T10:15:02.500Z,996.97
2016-11-19T10:16:17.037Z,997.01
2016-11-19T10:17:31.734Z,997.03
2016-11-19T10:18:47.093Z,997.02
2016-11-19T10:20:01.847Z,997.05
2016-11-19T10:21:32.132Z,996.97
2016-11-19T10:22:47.218Z,996.92
2016-11-19T10:24:02.395Z,996.84
2016-11-19T10:25:16.933Z,996.94
2016-11-19T10:26:31.334Z,996.89
2016-11-19T10:27:45.641Z,996.9
2016-11-19T10:29:00.919Z,996.87
2016-11-19T10:33:13.493Z,996.64
2016-11-19T10:34:30.859Z,996.6
2016-11-19T10:35:45.520Z,996.61
2016-11-19T10:37:14.747Z,996.66
2016-11-19T10:38:29.368Z,996.64
2016-11-19T10:39:44.369Z,996.61
2016-11-19T10:42:43.249Z,996.65
2016-11-19T10:43:57.883Z,996.56
2016-11-19T10:45:13.061Z,996.47
2016-11-19T10:46:27.784Z,996.5
2016-11-19T10:47:42.407Z,996.52
2016-11-19T10:48:57.587Z,996.52
2016-11-19T10:50:12.230Z,996.53
2016-11-19T10:51:27.104Z,996.5
2016-11-19T10:52:42.140Z,996.57
2016-11-19T10:53:56.559Z,996.55
2016-11-19T10:55:11.032Z,996.65
2016-11-19T10:56:25.704Z,996.66
2016-11-19T10:57:40.935Z,996.71
2016-11-19T10:58:55.663Z,996.74
2016-11-19T11:00:11.031Z,996.71
2016-11-19T11:01:26.075Z,996.76
2016-11-19T11:02:41.446Z,996.8
2016-11-19T11:03:58.286Z,996.78
2016-11-19T11:05:14.979Z,996.83
2016-11-19T11:06:31.453Z,996.72
2016-11-19T11:07:47.361Z,996.72
2016-11-19T11:09:03.716Z,996.7
2016-11-19T11:10:20.621Z,996.64
2016-11-19T11:11:37.069Z,996.55
2016-11-19T11:12:53.412Z,996.6
2016-11-19T11:14:08.755Z,996.57
2016-11-19T11:15:25.327Z,996.64
2016-11-19T11:16:42.370Z,996.68
2016-11-19T11:17:58.649Z,996.67
2016-11-19T11:19:14.507Z,996.71
2016-11-19T11:20:30.533Z,996.69
2016-11-19T11:21:46.581Z,996.68
2016-11-19T11:23:02.332Z,996.59
2016-11-19T11:24:18.759Z,996.56
2016-11-19T11:25:34.549Z,996.55
2016-11-19T11:26:50.145Z,996.53
2016-11-19T11:28:06.369Z,996.61
2016-11-19T11:29:22.217Z,996.61
2016-11-19T11:30:38.037Z,996.68
2016-11-19T11:31:54.068Z,996.68
2016-11-19T11:33:10.032Z,996.71
2016-11-19T11:34:26.270Z,996.67
2016-11-19T11:35:42.272Z,996.67
2016-11-19T11:36:58.394Z,996.73
2016-11-19T11:38:14.389Z,996.77
2016-11-19T11:39:30.411Z,996.81
2016-11-19T11:40:46.550Z,996.79
2016-11-19T11:42:02.017Z,996.85
2016-11-19T11:43:17.986Z,996.85
2016-11-19T11:44:33.921Z,996.83
2016-11-19T11:45:50.968Z,996.8
2016-11-19T11:47:09.198Z,996.77
2016-11-19T11:48:25.121Z,996.79
2016-11-19T11:49:40.130Z,996.81
2016-11-19T11:50:54.930Z,996.88
2016-11-19T11:52:23.748Z,996.95
2016-11-19T11:53:41.011Z,997
2016-11-19T11:54:55.714Z,996.97
2016-11-19T11:56:10.706Z,996.9
2016-11-19T11:57:25.189Z,997.05
2016-11-19T11:58:40.130Z,997.08
2016-11-19T11:59:56.270Z,997.11
2016-11-19T12:01:11.665Z,997.07
2016-11-19T12:02:26.820Z,997.06
2016-11-19T12:03:41.477Z,997.08
2016-11-19T12:04:56.856Z,997.08
2016-11-19T12:06:12.897Z,997.09
2016-11-19T12:07:27.524Z,997.18
2016-11-19T12:08:42.393Z,997.2
2016-11-19T12:09:57.069Z,997.24
2016-11-19T12:11:11.731Z,997.17
2016-11-19T12:12:41.418Z,997.21
2016-11-19T12:13:56.026Z,997.21
2016-11-19T12:15:10.628Z,997.17
2016-11-19T12:16:25.617Z,997.24
2016-11-19T12:17:40.363Z,997.2
2016-11-19T12:18:54.957Z,997.21
2016-11-19T12:20:09.951Z,997.21
2016-11-19T12:21:24.447Z,997.2
2016-11-19T12:22:39.269Z,997.19
2016-11-19T12:23:54.045Z,997.17
2016-11-19T12:25:08.819Z,997.07
2016-11-19T12:26:39.850Z,997.03
2016-11-19T12:27:55.970Z,997.01
2016-11-19T12:29:10.395Z,997.05
2016-11-19T12:30:25.065Z,997.07
2016-11-19T12:31:39.701Z,997.01
2016-11-19T12:32:54.625Z,997.03
2016-11-19T12:34:09.340Z,997.01
2016-11-19T12:35:24.060Z,997.04
2016-11-19T12:36:38.720Z,997.04
2016-11-19T12:37:53.086Z,997.08
2016-11-19T12:39:08.154Z,997.18
2016-11-19T12:40:23.479Z,997.17
2016-11-19T12:41:38.005Z,997.15
2016-11-19T12:42:52.376Z,997.16
2016-11-19T12:44:06.960Z,997.09
2016-11-19T12:45:21.997Z,997.07
2016-11-19T12:46:37.062Z,997.11
2016-11-19T12:47:51.557Z,997.09
2016-11-19T12:49:07.004Z,997.05
2016-11-19T12:50:21.817Z,997.03
2016-11-19T12:51:36.619Z,996.98
2016-11-19T12:52:52.418Z,997
2016-11-19T12:54:07.313Z,997
2016-11-19T12:55:22.261Z,997.03
2016-11-19T12:56:36.627Z,997.02
2016-11-19T12:57:51.299Z,996.99
2016-11-19T12:59:06.394Z,996.98
2016-11-19T13:00:21.109Z,996.96
2016-11-19T13:01:35.680Z,996.95
2016-11-19T13:04:04.899Z,996.91
2016-11-19T13:05:19.807Z,996.97
2016-11-19T13:06:34.168Z,997.08
2016-11-19T13:07:48.805Z,997.13
2016-11-19T13:09:03.770Z,997.09
2016-11-19T13:10:18.382Z,997.12
2016-11-19T13:11:32.694Z,997.17
2016-11-19T13:12:50.432Z,997.2
2016-11-19T13:14:04.939Z,997.23
2016-11-19T13:15:19.710Z,997.18
2016-11-19T13:16:34.978Z,997.22
2016-11-19T13:17:50.231Z,997.17
2016-11-19T13:19:31.182Z,997.25
2016-11-19T13:20:46.648Z,997.18
2016-11-19T13:22:01.547Z,997.13
2016-11-19T13:23:16.330Z,997.11
2016-11-19T13:24:45.646Z,997.12
2016-11-19T13:26:01.226Z,997.06
2016-11-19T13:30:14.650Z,997.09
2016-11-19T13:31:31.648Z,997.14
2016-11-19T13:32:46.198Z,997.12
2016-11-19T13:34:00.903Z,997.19
2016-11-19T13:35:17.110Z,997.19
2016-11-19T13:36:33.561Z,997.22
2016-11-19T13:37:49.363Z,997.21
2016-11-19T13:39:06.654Z,997.22
2016-11-19T13:40:23.244Z,997.22
2016-11-19T13:41:39.513Z,997.14
2016-11-19T13:42:56.365Z,997.22
2016-11-19T13:44:12.801Z,997.31
2016-11-19T13:45:27.677Z,997.3
2016-11-19T13:47:05.557Z,997.32
2016-11-19T13:48:21.530Z,997.38
2016-11-19T13:49:36.506Z,997.43
2016-11-19T13:50:51.076Z,997.44
2016-11-19T13:52:05.785Z,997.4
2016-11-19T13:53:21.157Z,997.38
2016-11-19T13:54:37.834Z,997.33
2016-11-19T13:55:52.620Z,997.34
2016-11-19T13:57:08.046Z,997.31
2016-11-19T13:58:27.267Z,997.44
2016-11-19T13:59:43.155Z,997.4
2016-11-19T14:01:01.473Z,997.37
2016-11-19T14:02:23.606Z,997.4
2016-11-19T14:03:38.263Z,997.43
2016-11-19T14:04:53.156Z,997.41
2016-11-19T14:06:08.047Z,997.41
2016-11-19T14:07:22.991Z,997.58
2016-11-19T14:08:37.906Z,997.54
2016-11-19T14:09:52.756Z,997.57
2016-11-19T14:11:07.871Z,997.53
2016-11-19T14:12:39.597Z,997.61
2016-11-19T14:14:10.889Z,997.59
2016-11-19T14:15:27.272Z,997.61
2016-11-19T14:16:45.619Z,997.63
2016-11-19T14:18:01.182Z,997.58
2016-11-19T14:19:19.262Z,997.6
2016-11-19T14:20:35.393Z,997.56
2016-11-19T14:21:50.866Z,997.65
2016-11-19T14:23:06.653Z,997.68
2016-11-19T14:24:21.002Z,997.67
2016-11-19T14:25:37.060Z,997.61
2016-11-19T14:26:52.117Z,997.66
2016-11-19T14:28:39.093Z,997.7
2016-11-19T14:29:55.468Z,997.74
2016-11-19T14:31:11.306Z,997.72
2016-11-19T14:33:27.457Z,997.59
2016-11-19T14:34:42.451Z,997.55
2016-11-19T14:36:01.383Z,997.62
2016-11-19T14:39:58.191Z,997.79
2016-11-19T14:41:13.711Z,997.76
2016-11-19T14:42:32.328Z,997.81
2016-11-19T14:43:47.061Z,997.79
2016-11-19T14:45:02.430Z,997.81
2016-11-19T14:46:17.730Z,997.85
2016-11-19T14:47:32.720Z,997.87
2016-11-19T14:48:47.758Z,997.86
2016-11-19T14:50:02.865Z,997.85
2016-11-19T14:51:17.590Z,997.9
2016-11-19T14:52:33.827Z,997.91
2016-11-19T14:53:48.964Z,997.93
2016-11-19T14:55:04.770Z,997.89
2016-11-19T14:56:19.470Z,997.89
2016-11-19T14:57:33.991Z,997.82
2016-11-19T14:58:48.256Z,997.82
2016-11-19T15:00:03.725Z,997.84
2016-11-19T15:01:19.748Z,997.81
2016-11-19T15:02:35.944Z,997.81
2016-11-19T15:03:50.987Z,997.85
2016-11-19T15:05:05.289Z,997.82
2016-11-19T15:06:24.040Z,997.75
2016-11-19T15:07:39.534Z,997.77
2016-11-19T15:08:54.663Z,997.73
2016-11-19T15:10:09.029Z,997.66
2016-11-19T15:11:24.693Z,997.65
2016-11-19T15:12:40.993Z,997.7
2016-11-19T15:13:57.303Z,997.78
2016-11-19T15:15:12.484Z,997.83
2016-11-19T15:16:28.107Z,997.85
2016-11-19T15:17:42.991Z,997.85
2016-11-19T15:18:57.479Z,997.85
2016-11-19T15:20:12.114Z,997.91
2016-11-19T15:21:26.680Z,997.91
2016-11-19T15:22:42.905Z,997.87
2016-11-19T15:23:58.366Z,997.84
2016-11-19T15:25:13.882Z,997.94
2016-11-19T15:26:29.010Z,997.89
2016-11-19T15:27:43.656Z,997.89
2016-11-19T15:28:58.410Z,997.88
2016-11-19T15:30:13.093Z,997.82
2016-11-19T15:31:27.830Z,997.84
2016-11-19T15:32:42.462Z,997.78
2016-11-19T15:33:56.647Z,997.84
2016-11-19T15:35:11.130Z,997.88
2016-11-19T15:36:25.592Z,997.85
2016-11-19T15:37:40.192Z,997.86
2016-11-19T15:38:54.977Z,997.88
2016-11-19T15:40:09.426Z,997.8
2016-11-19T15:41:24.169Z,997.8
2016-11-19T15:42:39.508Z,997.88
2016-11-19T15:43:54.860Z,997.86
2016-11-19T15:45:10.026Z,997.9
2016-11-19T15:46:25.665Z,997.91
2016-11-19T15:47:40.512Z,997.98
2016-11-19T15:48:55.071Z,997.94
2016-11-19T15:50:10.479Z,997.98
2016-11-19T15:51:25.496Z,997.99
2016-11-19T15:52:40.035Z,997.95
2016-11-19T15:53:54.481Z,997.93
2016-11-19T15:55:12.127Z,997.95
2016-11-19T15:56:27.138Z,998
2016-11-19T15:57:42.164Z,998.02
2016-11-19T15:58:57.038Z,998
2016-11-19T16:00:11.241Z,998.02
2016-11-19T16:01:26.715Z,998
2016-11-19T16:02:42.573Z,998.01
2016-11-19T16:04:12.492Z,998.04
2016-11-19T16:05:27.206Z,998.07
2016-11-19T16:06:41.701Z,998.08
2016-11-19T16:07:56.749Z,998.11
2016-11-19T16:09:11.159Z,998.2
2016-11-19T16:10:25.885Z,998.22
2016-11-19T16:11:40.166Z,998.2
2016-11-19T16:14:53.269Z,998.28
2016-11-19T16:16:08.048Z,998.29
2016-11-19T16:17:22.728Z,998.3
2016-11-19T16:18:37.877Z,998.33
2016-11-19T16:19:52.300Z,998.35
2016-11-19T16:21:07.111Z,998.33
2016-11-19T16:22:21.671Z,998.33
2016-11-19T16:23:36.379Z,998.34
2016-11-19T16:24:51.035Z,998.35
2016-11-19T16:26:05.491Z,998.39
2016-11-19T16:27:19.932Z,998.39
2016-11-19T16:28:34.929Z,998.36